Delta Virtual Airport Information Service

Vladivostok International Airport

ICAO: UHWW Country: Russia
Latitude: 43.3989 Longitude: 132.148
Latest Arrival : DAC579 (KMIA-UHWW) Latest Departure : DAC521 (UHWW-FWKI)


WX CaptureLIVE
Data provided by noaa.gov | Fetched at 12:27:10

METAR : UHWW 281700Z VRB01MPS 9999 NSC M02/M04 Q1028 R25L/0///70 NOSIG RMK QFE770

TAF : UHWW 281350Z 2815/2915 35003MPS 9999 NSC TEMPO 2815/2823 VRB01MPS FEW003 BKN017


Runway Data for UHWW
Data provided by openaviationdata.com

Runway ID Mag Var Hdg Length Elevation Surface ILS Freq ILS Id ILS Slope
7 -9 70° 8858 ft 46 ft Grass -- -- --
07L -9 70° 11549 ft 46 ft Concrete -- -- --
25 -9 250° 8858 ft 46 ft Grass -- -- --
25R -9 250° 11549 ft 46 ft Concrete -- -- --

Vladivostok International Airport, Russia
Use only for reference purposes



Not for navigational purposes.